sensor_id;sensor_type;location;lat;lon;timestamp;temperature;humidity
20915;DHT22;10617;52.032;5.298;2023-07-28T00:01:53;18.50;99.90
20915;DHT22;10617;52.032;5.298;2023-07-28T00:05:55;18.50;99.90
20915;DHT22;10617;52.032;5.298;2023-07-28T00:09:56;18.60;99.90
20915;DHT22;10617;52.032;5.298;2023-07-28T00:13:58;18.60;99.90
20915;DHT22;10617;52.032;5.298;2023-07-28T00:18:00;18.60;99.90
20915;DHT22;10617;52.032;5.298;2023-07-28T00:22:03;18.60;99.90
20915;DHT22;10617;52.032;5.298;2023-07-28T00:26:05;18.60;99.90
20915;DHT22;10617;52.032;5.298;2023-07-28T00:30:07;18.60;99.90
20915;DHT22;10617;52.032;5.298;2023-07-28T00:34:09;18.60;99.90
20915;DHT22;10617;52.032;5.298;2023-07-28T00:38:10;18.60;99.90
20915;DHT22;10617;52.032;5.298;2023-07-28T00:42:12;18.60;99.90
20915;DHT22;10617;52.032;5.298;2023-07-28T00:46:14;18.60;99.90
20915;DHT22;10617;52.032;5.298;2023-07-28T00:50:16;18.60;99.90
20915;DHT22;10617;52.032;5.298;2023-07-28T00:54:18;18.60;99.90
20915;DHT22;10617;52.032;5.298;2023-07-28T00:58:20;18.60;99.90
20915;DHT22;10617;52.032;5.298;2023-07-28T01:02:21;18.60;99.90
20915;DHT22;10617;52.032;5.298;2023-07-28T01:06:32;18.70;99.90
20915;DHT22;10617;52.032;5.298;2023-07-28T01:10:36;18.70;99.90
20915;DHT22;10617;52.032;5.298;2023-07-28T01:14:40;18.70;99.90
20915;DHT22;10617;52.032;5.298;2023-07-28T01:18:41;18.70;99.90
20915;DHT22;10617;52.032;5.298;2023-07-28T01:26:49;18.70;99.90
20915;DHT22;10617;52.032;5.298;2023-07-28T01:30:51;18.70;99.90
20915;DHT22;10617;52.032;5.298;2023-07-28T01:34:53;18.70;99.90
20915;DHT22;10617;52.032;5.298;2023-07-28T01:38:57;18.70;99.90
20915;DHT22;10617;52.032;5.298;2023-07-28T01:42:59;18.70;99.90
20915;DHT22;10617;52.032;5.298;2023-07-28T01:47:01;18.70;99.90
20915;DHT22;10617;52.032;5.298;2023-07-28T01:51:02;18.70;99.90
20915;DHT22;10617;52.032;5.298;2023-07-28T01:55:04;18.70;99.90
20915;DHT22;10617;52.032;5.298;2023-07-28T01:59:07;18.60;99.90
20915;DHT22;10617;52.032;5.298;2023-07-28T02:03:09;18.60;99.90
20915;DHT22;10617;52.032;5.298;2023-07-28T02:07:11;18.60;99.90
20915;DHT22;10617;52.032;5.298;2023-07-28T02:11:13;18.60;99.90
20915;DHT22;10617;52.032;5.298;2023-07-28T02:15:14;18.60;99.90
20915;DHT22;10617;52.032;5.298;2023-07-28T02:19:16;18.60;99.90
20915;DHT22;10617;52.032;5.298;2023-07-28T02:23:17;18.60;99.90
20915;DHT22;10617;52.032;5.298;2023-07-28T02:27:19;18.60;99.90
20915;DHT22;10617;52.032;5.298;2023-07-28T02:31:21;18.60;99.90
20915;DHT22;10617;52.032;5.298;2023-07-28T02:35:22;18.70;99.90
20915;DHT22;10617;52.032;5.298;2023-07-28T02:39:24;18.70;99.90
20915;DHT22;10617;52.032;5.298;2023-07-28T02:43:26;18.70;99.90
20915;DHT22;10617;52.032;5.298;2023-07-28T02:47:28;18.70;99.90
20915;DHT22;10617;52.032;5.298;2023-07-28T02:51:30;18.70;99.90
20915;DHT22;10617;52.032;5.298;2023-07-28T02:55:31;18.70;99.90
20915;DHT22;10617;52.032;5.298;2023-07-28T02:59:33;18.70;99.90
20915;DHT22;10617;52.032;5.298;2023-07-28T03:03:35;18.70;99.90
20915;DHT22;10617;52.032;5.298;2023-07-28T03:07:36;18.70;99.90
20915;DHT22;10617;52.032;5.298;2023-07-28T03:11:38;18.70;99.90
20915;DHT22;10617;52.032;5.298;2023-07-28T03:15:40;18.70;99.90
20915;DHT22;10617;52.032;5.298;2023-07-28T03:19:41;18.70;99.90
20915;DHT22;10617;52.032;5.298;2023-07-28T03:23:43;18.70;99.90
20915;DHT22;10617;52.032;5.298;2023-07-28T03:27:44;18.70;99.90
20915;DHT22;10617;52.032;5.298;2023-07-28T03:31:46;18.70;99.90
20915;DHT22;10617;52.032;5.298;2023-07-28T03:35:48;18.70;99.90
20915;DHT22;10617;52.032;5.298;2023-07-28T03:39:49;18.70;99.90
20915;DHT22;10617;52.032;5.298;2023-07-28T03:43:51;18.70;99.90
20915;DHT22;10617;52.032;5.298;2023-07-28T03:47:53;18.70;99.90
20915;DHT22;10617;52.032;5.298;2023-07-28T03:51:54;18.70;99.90
20915;DHT22;10617;52.032;5.298;2023-07-28T03:55:56;18.70;99.90
20915;DHT22;10617;52.032;5.298;2023-07-28T03:59:59;18.70;99.90
20915;DHT22;10617;52.032;5.298;2023-07-28T04:04:01;18.70;99.90
20915;DHT22;10617;52.032;5.298;2023-07-28T04:08:06;18.70;99.90
20915;DHT22;10617;52.032;5.298;2023-07-28T04:12:07;18.70;99.90
20915;DHT22;10617;52.032;5.298;2023-07-28T04:16:09;18.70;99.90
20915;DHT22;10617;52.032;5.298;2023-07-28T04:20:11;18.70;99.90
20915;DHT22;10617;52.032;5.298;2023-07-28T04:24:12;18.70;99.90
20915;DHT22;10617;52.032;5.298;2023-07-28T04:28:14;18.80;99.90
20915;DHT22;10617;52.032;5.298;2023-07-28T04:32:16;18.70;99.90
20915;DHT22;10617;52.032;5.298;2023-07-28T04:36:17;18.80;99.90
20915;DHT22;10617;52.032;5.298;2023-07-28T04:40:19;18.70;99.90
20915;DHT22;10617;52.032;5.298;2023-07-28T04:44:21;18.70;99.90
20915;DHT22;10617;52.032;5.298;2023-07-28T04:48:22;18.80;99.90
20915;DHT22;10617;52.032;5.298;2023-07-28T04:52:24;18.70;99.90
20915;DHT22;10617;52.032;5.298;2023-07-28T04:56:26;18.80;99.90
20915;DHT22;10617;52.032;5.298;2023-07-28T05:00:27;18.80;99.90
20915;DHT22;10617;52.032;5.298;2023-07-28T05:04:29;18.80;99.90
20915;DHT22;10617;52.032;5.298;2023-07-28T05:08:31;18.80;99.90
20915;DHT22;10617;52.032;5.298;2023-07-28T05:12:33;18.80;99.90
20915;DHT22;10617;52.032;5.298;2023-07-28T05:16:34;18.80;99.90
20915;DHT22;10617;52.032;5.298;2023-07-28T05:20:36;18.80;99.90
20915;DHT22;10617;52.032;5.298;2023-07-28T05:24:38;18.80;99.90
20915;DHT22;10617;52.032;5.298;2023-07-28T05:28:39;18.80;99.90
20915;DHT22;10617;52.032;5.298;2023-07-28T05:32:41;18.80;99.90
20915;DHT22;10617;52.032;5.298;2023-07-28T05:36:43;18.80;99.90
20915;DHT22;10617;52.032;5.298;2023-07-28T05:40:45;18.80;99.90
20915;DHT22;10617;52.032;5.298;2023-07-28T05:44:47;18.90;99.90
20915;DHT22;10617;52.032;5.298;2023-07-28T05:48:49;18.90;99.90
20915;DHT22;10617;52.032;5.298;2023-07-28T05:52:50;18.90;99.90
20915;DHT22;10617;52.032;5.298;2023-07-28T05:56:52;18.90;99.90
20915;DHT22;10617;52.032;5.298;2023-07-28T06:00:54;18.90;99.90
20915;DHT22;10617;52.032;5.298;2023-07-28T06:04:55;18.90;99.90
20915;DHT22;10617;52.032;5.298;2023-07-28T06:08:57;18.90;99.90
20915;DHT22;10617;52.032;5.298;2023-07-28T06:12:59;18.90;99.90
20915;DHT22;10617;52.032;5.298;2023-07-28T06:17:00;19.00;99.90
20915;DHT22;10617;52.032;5.298;2023-07-28T06:21:02;18.90;99.90
20915;DHT22;10617;52.032;5.298;2023-07-28T06:25:04;19.00;99.90
20915;DHT22;10617;52.032;5.298;2023-07-28T06:29:06;19.00;99.90
20915;DHT22;10617;52.032;5.298;2023-07-28T06:33:08;19.00;99.90
20915;DHT22;10617;52.032;5.298;2023-07-28T06:37:10;19.00;99.90
20915;DHT22;10617;52.032;5.298;2023-07-28T06:41:11;19.00;99.90
20915;DHT22;10617;52.032;5.298;2023-07-28T06:45:13;19.00;99.90
20915;DHT22;10617;52.032;5.298;2023-07-28T06:49:15;19.00;99.90
20915;DHT22;10617;52.032;5.298;2023-07-28T06:53:17;19.00;99.90
20915;DHT22;10617;52.032;5.298;2023-07-28T06:57:19;19.00;99.90
20915;DHT22;10617;52.032;5.298;2023-07-28T07:01:22;19.10;99.90
20915;DHT22;10617;52.032;5.298;2023-07-28T07:05:24;19.10;99.90
20915;DHT22;10617;52.032;5.298;2023-07-28T07:09:25;19.10;99.90
20915;DHT22;10617;52.032;5.298;2023-07-28T07:13:27;19.10;99.90
20915;DHT22;10617;52.032;5.298;2023-07-28T07:17:29;19.10;99.90
20915;DHT22;10617;52.032;5.298;2023-07-28T07:21:30;19.20;99.90
20915;DHT22;10617;52.032;5.298;2023-07-28T07:25:32;19.10;99.90
20915;DHT22;10617;52.032;5.298;2023-07-28T07:29:34;19.20;99.90
20915;DHT22;10617;52.032;5.298;2023-07-28T07:33:36;19.20;99.90
20915;DHT22;10617;52.032;5.298;2023-07-28T07:37:38;19.20;99.90
20915;DHT22;10617;52.032;5.298;2023-07-28T07:41:40;19.20;99.90
20915;DHT22;10617;52.032;5.298;2023-07-28T07:45:42;19.30;99.90
20915;DHT22;10617;52.032;5.298;2023-07-28T07:49:43;19.30;99.90
20915;DHT22;10617;52.032;5.298;2023-07-28T07:53:45;19.30;99.90
20915;DHT22;10617;52.032;5.298;2023-07-28T07:57:47;19.40;99.90
20915;DHT22;10617;52.032;5.298;2023-07-28T08:01:48;19.40;99.90
20915;DHT22;10617;52.032;5.298;2023-07-28T08:05:50;19.40;99.90
20915;DHT22;10617;52.032;5.298;2023-07-28T08:09:52;19.50;99.90
20915;DHT22;10617;52.032;5.298;2023-07-28T08:13:54;19.50;99.90
20915;DHT22;10617;52.032;5.298;2023-07-28T08:17:56;19.60;99.90
20915;DHT22;10617;52.032;5.298;2023-07-28T08:21:58;19.70;99.90
20915;DHT22;10617;52.032;5.298;2023-07-28T08:36:07;20.00;99.90
20915;DHT22;10617;52.032;5.298;2023-07-28T08:40:09;20.00;99.90
20915;DHT22;10617;52.032;5.298;2023-07-28T08:44:12;20.10;99.90
20915;DHT22;10617;52.032;5.298;2023-07-28T08:48:14;20.10;99.90
20915;DHT22;10617;52.032;5.298;2023-07-28T08:52:16;20.10;99.90
20915;DHT22;10617;52.032;5.298;2023-07-28T08:56:18;20.10;99.90
20915;DHT22;10617;52.032;5.298;2023-07-28T09:00:20;20.10;99.90
20915;DHT22;10617;52.032;5.298;2023-07-28T09:04:22;20.20;99.90
20915;DHT22;10617;52.032;5.298;2023-07-28T09:08:23;20.30;99.90
20915;DHT22;10617;52.032;5.298;2023-07-28T09:12:25;20.50;99.90
20915;DHT22;10617;52.032;5.298;2023-07-28T09:16:27;20.60;99.90
20915;DHT22;10617;52.032;5.298;2023-07-28T09:20:34;20.80;99.90
20915;DHT22;10617;52.032;5.298;2023-07-28T09:24:36;20.80;99.90
20915;DHT22;10617;52.032;5.298;2023-07-28T09:28:39;20.90;99.90
20915;DHT22;10617;52.032;5.298;2023-07-28T09:32:41;21.00;99.90
20915;DHT22;10617;52.032;5.298;2023-07-28T09:36:47;21.10;99.90
20915;DHT22;10617;52.032;5.298;2023-07-28T09:40:51;21.20;99.90
20915;DHT22;10617;52.032;5.298;2023-07-28T09:44:53;21.20;99.90
20915;DHT22;10617;52.032;5.298;2023-07-28T09:48:56;21.10;99.90
20915;DHT22;10617;52.032;5.298;2023-07-28T09:52:58;21.10;99.90
20915;DHT22;10617;52.032;5.298;2023-07-28T09:57:01;21.10;99.90
20915;DHT22;10617;52.032;5.298;2023-07-28T10:01:05;21.20;99.90
20915;DHT22;10617;52.032;5.298;2023-07-28T10:05:07;21.30;99.90
20915;DHT22;10617;52.032;5.298;2023-07-28T10:09:09;21.40;99.90
20915;DHT22;10617;52.032;5.298;2023-07-28T10:13:22;21.50;99.90
20915;DHT22;10617;52.032;5.298;2023-07-28T10:21:58;21.60;99.90
20915;DHT22;10617;52.032;5.298;2023-07-28T10:26:00;21.50;99.90
20915;DHT22;10617;52.032;5.298;2023-07-28T10:30:03;21.60;99.90
20915;DHT22;10617;52.032;5.298;2023-07-28T10:34:08;21.70;99.90
20915;DHT22;10617;52.032;5.298;2023-07-28T10:38:29;21.60;99.90
20915;DHT22;10617;52.032;5.298;2023-07-28T10:42:35;21.60;99.90
20915;DHT22;10617;52.032;5.298;2023-07-28T10:46:37;21.60;99.90
20915;DHT22;10617;52.032;5.298;2023-07-28T10:50:39;21.50;99.90
20915;DHT22;10617;52.032;5.298;2023-07-28T10:54:41;21.60;99.90
20915;DHT22;10617;52.032;5.298;2023-07-28T10:58:43;21.60;99.90
20915;DHT22;10617;52.032;5.298;2023-07-28T11:02:46;21.70;99.90
20915;DHT22;10617;52.032;5.298;2023-07-28T11:06:48;21.80;99.90
20915;DHT22;10617;52.032;5.298;2023-07-28T11:10:50;21.80;99.90
20915;DHT22;10617;52.032;5.298;2023-07-28T11:14:52;21.80;99.90
20915;DHT22;10617;52.032;5.298;2023-07-28T11:18:55;21.90;99.90
20915;DHT22;10617;52.032;5.298;2023-07-28T11:23:00;22.00;99.90
20915;DHT22;10617;52.032;5.298;2023-07-28T11:27:02;22.10;99.90
20915;DHT22;10617;52.032;5.298;2023-07-28T11:31:04;22.10;99.90
20915;DHT22;10617;52.032;5.298;2023-07-28T11:35:06;22.10;99.90
20915;DHT22;10617;52.032;5.298;2023-07-28T11:39:08;22.10;99.90
20915;DHT22;10617;52.032;5.298;2023-07-28T11:43:10;22.00;99.90
20915;DHT22;10617;52.032;5.298;2023-07-28T11:47:16;22.10;99.90
20915;DHT22;10617;52.032;5.298;2023-07-28T11:51:18;22.10;99.90
20915;DHT22;10617;52.032;5.298;2023-07-28T11:55:20;22.20;99.90
20915;DHT22;10617;52.032;5.298;2023-07-28T11:59:22;22.20;99.90
20915;DHT22;10617;52.032;5.298;2023-07-28T12:13:31;22.40;99.90
20915;DHT22;10617;52.032;5.298;2023-07-28T12:17:33;22.40;99.90
20915;DHT22;10617;52.032;5.298;2023-07-28T12:21:37;22.50;99.90
20915;DHT22;10617;52.032;5.298;2023-07-28T12:25:39;22.50;99.90
20915;DHT22;10617;52.032;5.298;2023-07-28T12:29:41;22.50;99.90
20915;DHT22;10617;52.032;5.298;2023-07-28T12:33:51;22.50;99.90
20915;DHT22;10617;52.032;5.298;2023-07-28T12:58:17;23.00;99.90
20915;DHT22;10617;52.032;5.298;2023-07-28T13:02:22;23.20;99.90
20915;DHT22;10617;52.032;5.298;2023-07-28T13:16:31;23.10;99.90
20915;DHT22;10617;52.032;5.298;2023-07-28T13:20:33;23.10;99.90
20915;DHT22;10617;52.032;5.298;2023-07-28T13:24:34;23.20;99.90
20915;DHT22;10617;52.032;5.298;2023-07-28T13:28:36;23.20;99.90
20915;DHT22;10617;52.032;5.298;2023-07-28T13:32:38;23.10;99.90
20915;DHT22;10617;52.032;5.298;2023-07-28T13:36:40;23.20;99.90
20915;DHT22;10617;52.032;5.298;2023-07-28T13:40:41;23.20;99.90
20915;DHT22;10617;52.032;5.298;2023-07-28T13:44:43;23.30;99.90
20915;DHT22;10617;52.032;5.298;2023-07-28T13:48:57;23.30;99.90
20915;DHT22;10617;52.032;5.298;2023-07-28T13:53:08;23.30;99.90
20915;DHT22;10617;52.032;5.298;2023-07-28T13:57:13;23.30;99.90
20915;DHT22;10617;52.032;5.298;2023-07-28T14:01:15;23.30;99.90
20915;DHT22;10617;52.032;5.298;2023-07-28T14:05:17;23.40;99.90
20915;DHT22;10617;52.032;5.298;2023-07-28T14:09:20;23.50;99.90
20915;DHT22;10617;52.032;5.298;2023-07-28T14:13:22;23.50;99.90
20915;DHT22;10617;52.032;5.298;2023-07-28T14:17:24;23.50;99.90
20915;DHT22;10617;52.032;5.298;2023-07-28T14:21:26;23.30;99.90
20915;DHT22;10617;52.032;5.298;2023-07-28T14:25:27;23.20;99.90
20915;DHT22;10617;52.032;5.298;2023-07-28T14:29:29;23.10;99.90
20915;DHT22;10617;52.032;5.298;2023-07-28T14:33:31;23.10;99.90
20915;DHT22;10617;52.032;5.298;2023-07-28T14:37:32;23.00;99.90
20915;DHT22;10617;52.032;5.298;2023-07-28T14:41:35;22.90;99.90
20915;DHT22;10617;52.032;5.298;2023-07-28T14:45:36;22.80;99.90
20915;DHT22;10617;52.032;5.298;2023-07-28T14:49:38;22.70;99.90
20915;DHT22;10617;52.032;5.298;2023-07-28T14:53:40;22.70;99.90
20915;DHT22;10617;52.032;5.298;2023-07-28T14:57:41;22.70;99.90
20915;DHT22;10617;52.032;5.298;2023-07-28T15:01:43;22.80;99.90
20915;DHT22;10617;52.032;5.298;2023-07-28T15:05:45;22.80;99.90
20915;DHT22;10617;52.032;5.298;2023-07-28T15:09:47;22.80;99.90
20915;DHT22;10617;52.032;5.298;2023-07-28T15:13:48;22.80;99.90
20915;DHT22;10617;52.032;5.298;2023-07-28T15:23:06;22.70;99.90
20915;DHT22;10617;52.032;5.298;2023-07-28T15:37:17;22.60;99.90
20915;DHT22;10617;52.032;5.298;2023-07-28T15:41:19;22.50;99.90
20915;DHT22;10617;52.032;5.298;2023-07-28T15:45:20;22.50;99.90
20915;DHT22;10617;52.032;5.298;2023-07-28T15:49:22;22.40;99.90
20915;DHT22;10617;52.032;5.298;2023-07-28T15:53:24;22.30;99.90
20915;DHT22;10617;52.032;5.298;2023-07-28T15:57:25;22.20;99.90
20915;DHT22;10617;52.032;5.298;2023-07-28T16:01:27;22.20;99.90
20915;DHT22;10617;52.032;5.298;2023-07-28T16:05:29;22.30;99.90
20915;DHT22;10617;52.032;5.298;2023-07-28T16:09:30;22.30;99.90
20915;DHT22;10617;52.032;5.298;2023-07-28T16:13:32;22.30;99.90
20915;DHT22;10617;52.032;5.298;2023-07-28T16:17:34;22.30;99.90
20915;DHT22;10617;52.032;5.298;2023-07-28T16:21:36;22.30;99.90
20915;DHT22;10617;52.032;5.298;2023-07-28T16:25:38;22.10;99.90
20915;DHT22;10617;52.032;5.298;2023-07-28T16:29:39;21.90;99.90
20915;DHT22;10617;52.032;5.298;2023-07-28T16:48:52;21.40;99.90
20915;DHT22;10617;52.032;5.298;2023-07-28T16:52:54;21.30;99.90
20915;DHT22;10617;52.032;5.298;2023-07-28T16:56:56;21.30;99.90
20915;DHT22;10617;52.032;5.298;2023-07-28T17:00:58;21.40;99.90
20915;DHT22;10617;52.032;5.298;2023-07-28T17:05:00;21.40;99.90
20915;DHT22;10617;52.032;5.298;2023-07-28T17:09:01;21.40;99.90
20915;DHT22;10617;52.032;5.298;2023-07-28T17:13:03;21.50;99.90
20915;DHT22;10617;52.032;5.298;2023-07-28T17:17:05;21.50;99.90
20915;DHT22;10617;52.032;5.298;2023-07-28T17:21:06;21.60;99.90
20915;DHT22;10617;52.032;5.298;2023-07-28T17:25:08;21.60;99.90
20915;DHT22;10617;52.032;5.298;2023-07-28T17:29:10;21.60;99.90
20915;DHT22;10617;52.032;5.298;2023-07-28T17:33:27;21.70;99.90
20915;DHT22;10617;52.032;5.298;2023-07-28T17:37:29;21.70;99.90
20915;DHT22;10617;52.032;5.298;2023-07-28T17:41:31;21.70;99.90
20915;DHT22;10617;52.032;5.298;2023-07-28T17:45:32;21.70;99.90
20915;DHT22;10617;52.032;5.298;2023-07-28T18:04:38;21.70;99.90
20915;DHT22;10617;52.032;5.298;2023-07-28T18:08:40;21.80;99.90
20915;DHT22;10617;52.032;5.298;2023-07-28T18:12:42;21.80;99.90
20915;DHT22;10617;52.032;5.298;2023-07-28T18:16:43;21.80;99.90
20915;DHT22;10617;52.032;5.298;2023-07-28T18:20:45;21.80;99.90
20915;DHT22;10617;52.032;5.298;2023-07-28T18:34:54;21.90;99.90
20915;DHT22;10617;52.032;5.298;2023-07-28T18:38:56;21.80;99.90
20915;DHT22;10617;52.032;5.298;2023-07-28T18:42:57;21.80;99.90
20915;DHT22;10617;52.032;5.298;2023-07-28T18:46:59;21.80;99.90
20915;DHT22;10617;52.032;5.298;2023-07-28T18:51:01;21.80;99.90
20915;DHT22;10617;52.032;5.298;2023-07-28T18:55:04;21.80;99.90
20915;DHT22;10617;52.032;5.298;2023-07-28T18:59:06;21.80;99.90
20915;DHT22;10617;52.032;5.298;2023-07-28T19:03:07;21.70;99.90
20915;DHT22;10617;52.032;5.298;2023-07-28T19:07:09;21.70;99.90
20915;DHT22;10617;52.032;5.298;2023-07-28T19:11:11;21.60;99.90
20915;DHT22;10617;52.032;5.298;2023-07-28T19:15:12;21.60;99.90
20915;DHT22;10617;52.032;5.298;2023-07-28T19:40:06;21.30;99.90
20915;DHT22;10617;52.032;5.298;2023-07-28T19:44:08;21.20;99.90
20915;DHT22;10617;52.032;5.298;2023-07-28T19:48:10;21.10;99.90
20915;DHT22;10617;52.032;5.298;2023-07-28T19:52:12;21.10;99.90
20915;DHT22;10617;52.032;5.298;2023-07-28T19:56:15;21.10;99.90
20915;DHT22;10617;52.032;5.298;2023-07-28T20:00:17;21.10;99.90
20915;DHT22;10617;52.032;5.298;2023-07-28T20:04:19;21.00;99.90
20915;DHT22;10617;52.032;5.298;2023-07-28T20:08:20;21.00;99.90
20915;DHT22;10617;52.032;5.298;2023-07-28T20:12:22;21.00;99.90
20915;DHT22;10617;52.032;5.298;2023-07-28T20:16:24;21.00;99.90
20915;DHT22;10617;52.032;5.298;2023-07-28T20:20:26;20.90;99.90
20915;DHT22;10617;52.032;5.298;2023-07-28T20:24:27;20.90;99.90
20915;DHT22;10617;52.032;5.298;2023-07-28T20:28:29;20.90;99.90
20915;DHT22;10617;52.032;5.298;2023-07-28T20:32:31;20.80;99.90
20915;DHT22;10617;52.032;5.298;2023-07-28T20:36:34;20.70;99.90
20915;DHT22;10617;52.032;5.298;2023-07-28T20:40:36;20.70;99.90
20915;DHT22;10617;52.032;5.298;2023-07-28T20:44:37;20.70;99.90
20915;DHT22;10617;52.032;5.298;2023-07-28T20:48:39;20.60;99.90
20915;DHT22;10617;52.032;5.298;2023-07-28T20:52:41;20.60;99.90
20915;DHT22;10617;52.032;5.298;2023-07-28T20:56:42;20.50;99.90
20915;DHT22;10617;52.032;5.298;2023-07-28T21:00:44;20.40;99.90
20915;DHT22;10617;52.032;5.298;2023-07-28T21:04:46;20.40;99.90
20915;DHT22;10617;52.032;5.298;2023-07-28T21:08:48;20.40;99.90
20915;DHT22;10617;52.032;5.298;2023-07-28T21:12:49;20.40;99.90
20915;DHT22;10617;52.032;5.298;2023-07-28T21:16:51;20.40;99.90
20915;DHT22;10617;52.032;5.298;2023-07-28T21:20:53;20.40;99.90
20915;DHT22;10617;52.032;5.298;2023-07-28T21:24:55;20.30;99.90
20915;DHT22;10617;52.032;5.298;2023-07-28T21:33:59;20.30;99.90
20915;DHT22;10617;52.032;5.298;2023-07-28T21:38:01;20.30;99.90
20915;DHT22;10617;52.032;5.298;2023-07-28T21:42:09;20.20;99.90
20915;DHT22;10617;52.032;5.298;2023-07-28T21:46:10;20.20;99.90
20915;DHT22;10617;52.032;5.298;2023-07-28T21:50:12;20.20;99.90
20915;DHT22;10617;52.032;5.298;2023-07-28T21:54:14;20.20;99.90
20915;DHT22;10617;52.032;5.298;2023-07-28T21:58:16;20.20;99.90
20915;DHT22;10617;52.032;5.298;2023-07-28T22:02:17;20.10;99.90
20915;DHT22;10617;52.032;5.298;2023-07-28T22:06:26;20.10;99.90
20915;DHT22;10617;52.032;5.298;2023-07-28T22:10:28;20.10;99.90
20915;DHT22;10617;52.032;5.298;2023-07-28T22:14:30;20.10;99.90
20915;DHT22;10617;52.032;5.298;2023-07-28T22:18:32;20.00;99.90
20915;DHT22;10617;52.032;5.298;2023-07-28T22:22:33;20.00;99.90
20915;DHT22;10617;52.032;5.298;2023-07-28T22:26:35;20.00;99.90
20915;DHT22;10617;52.032;5.298;2023-07-28T22:30:37;19.90;99.90
20915;DHT22;10617;52.032;5.298;2023-07-28T22:34:39;19.80;99.90
20915;DHT22;10617;52.032;5.298;2023-07-28T22:38:41;19.80;99.90
20915;DHT22;10617;52.032;5.298;2023-07-28T22:42:42;19.80;99.90
20915;DHT22;10617;52.032;5.298;2023-07-28T22:46:44;19.70;99.90
20915;DHT22;10617;52.032;5.298;2023-07-28T22:50:46;19.70;99.90
20915;DHT22;10617;52.032;5.298;2023-07-28T22:54:48;19.70;99.90
20915;DHT22;10617;52.032;5.298;2023-07-28T22:58:52;19.60;99.90
20915;DHT22;10617;52.032;5.298;2023-07-28T23:02:54;19.50;99.90
20915;DHT22;10617;52.032;5.298;2023-07-28T23:06:56;19.50;99.90
20915;DHT22;10617;52.032;5.298;2023-07-28T23:10:57;19.40;99.90
20915;DHT22;10617;52.032;5.298;2023-07-28T23:14:59;19.30;99.90
20915;DHT22;10617;52.032;5.298;2023-07-28T23:19:01;19.30;99.90
20915;DHT22;10617;52.032;5.298;2023-07-28T23:23:02;19.30;99.90
20915;DHT22;10617;52.032;5.298;2023-07-28T23:27:05;19.20;99.90
20915;DHT22;10617;52.032;5.298;2023-07-28T23:31:10;19.20;99.90
20915;DHT22;10617;52.032;5.298;2023-07-28T23:35:12;19.20;99.90
20915;DHT22;10617;52.032;5.298;2023-07-28T23:39:14;19.20;99.90
20915;DHT22;10617;52.032;5.298;2023-07-28T23:53:23;19.20;99.90
20915;DHT22;10617;52.032;5.298;2023-07-28T23:57:25;19.20;99.90
